Monday, July 23, 2018, 12:03 AM GMT
Back to Local

CYTR, Trenton, Ont.

Location: , , Canada Lat: 44.117
Local Time: 12:03 AM GMT ( 0:03 GMT) Lon: -77.533
Time Zone: GMT Elev: 278 ft

Show me the last for .
Show Decoded

2018-07-22 23:00 METAR CYTR 222300Z 15007KT 15SM FEW030 FEW080 FEW240 27/18 A2987 RMK SC1AC1CI1
                 SLP114 =
2018-07-22 22:00 METAR CYTR 222200Z 17006KT 15SM FEW030 FEW080 FEW240 28/19 A2985 RMK SC2AC1CI1
                 SLP109 =
2018-07-22 21:00 METAR CYTR 222100Z 17008KT 15SM FEW030 SCT080 BKN240 27/19 A2985 RMK SC2AC1CI2
                 SLP107 =
2018-07-22 20:00 METAR CYTR 222000Z 14006KT 15SM BKN030 BKN060 BKN240 26/19 A2982 RMK SC5SC2CI1
                 SLP100 =
2018-07-22 19:00 METAR CYTR 221900Z 14010G18KT 15SM BKN024 BKN060 25/19 A2981 RMK SC5SC2 SLP095 =
2018-07-22 18:00 METAR CYTR 221800Z 09010KT 15SM BKN018 OVC050 24/19 A2979 RMK SC6SC2 SLP088 =
2018-07-22 17:37 METAR CYTR 221737Z 10009KT 8SM BKN018 OVC050 23/19 A2979 RMK SC6SC2 SLP087 =
2018-07-22 17:06 METAR CYTR 221706Z 09008KT 7SM -SHRA BKN018 OVC050 22/18 A2978 RMK SC6SC2 PCPN
                 VRY LGT SLP085 =
2018-07-22 17:00 METAR CYTR 221700Z 08006KT 2 1/2SM -SHRA BR BKN018 OVC050 22/18 A2978 RMK SC6SC2
                 SLP085 =
2018-07-22 16:42 METAR CYTR 221642Z 09011G19KT 5SM -DZ BR BKN022 OVC050 23/18 A2978 RMK SC6SC2
                 SLP085 =
2018-07-22 16:25 METAR CYTR 221625Z 07008KT 15SM BKN022 OVC040 23/18 A2978 RMK SC6SC2 SLP083 =
2018-07-22 16:00 METAR CYTR 221600Z 07007G18KT 7SM -SHRA BKN017 OVC040 22/18 A2978 RMK SC5SC3
                 PCPN VRY LGT SLP083 =
2018-07-22 15:53 METAR CYTR 221553Z 08011KT 7SM -SHRA BKN017 OVC040 22/17 A2977 RMK SC5SC3 SLP083
                 =
2018-07-22 15:00 METAR CYTR 221500Z 06009G15KT 15SM BKN017 BKN040 OVC090 21/17 A2978 RMK
                 SC5SC2AC1 SLP083 =
2018-07-22 14:37 METAR CYTR 221437Z 07011G17KT 15SM -SHRA BKN015 BKN033 OVC090 20/17 A2978 RMK
                 SF5SC2AC1 SLP084 =
2018-07-22 14:20 METAR CYTR 221420Z 07013G22KT 15SM -DZ SCT015 BKN033 OVC090 21/17 A2977 RMK
                 SF4SC3AC1 SLP083 =
2018-07-22 14:00 METAR CYTR 221400Z 08011G18KT 15SM SCT010 BKN033 OVC080 20/17 A2977 RMK
                 SF3SC3AC2 SLP083 =
2018-07-22 13:00 METAR CYTR 221300Z 06012G21KT 12SM SCT010 BKN033 OVC080 19/16 A2980 RMK
                 SF3SC4AC1 SLP090 =
2018-07-22 12:22 METAR CYTR 221222Z 06015G21KT 10SM SCT010 BKN025 OVC080 18/16 A2981 RMK
                 SF3SC4AC1 SLP093 =
2018-07-22 12:08 METAR CYTR 221208Z 06012G19KT 8SM -SHRA SCT010 BKN025 OVC080 18/16 A2981 RMK
                 SF3SC4AC1 PCPN VRY LGT SLP095 =
2018-07-22 12:00 METAR CYTR 221200Z 05014G20KT 4SM -SHRA BR SCT013 BKN025 OVC063 18/15 A2981 RMK
                 SF4SC3SC1 PCPN VRY LGT SLP095 =
2018-07-22 11:43 METAR CYTR 221143Z 05010G16KT 2SM -SHRA BR SCT013 BKN020 OVC063 17/15 A2983 RMK
                 SF4SC3SC1 SLP101 =
2018-07-22 11:35 METAR CYTR 221135Z 06010G15KT 1 3/4SM SHRA BR FEW013 BKN020 OVC063 17/15 A2984
                 RMK SF2SC3SC2 SLP104 =
2018-07-22 11:27 METAR CYTR 221127Z 06010KT 3SM -SHRA BR FEW013 BKN020 OVC063 17/15 A2983 RMK
                 SF2SC4SC2 SLP102 =
2018-07-22 11:18 METAR CYTR 221118Z 06009KT 2SM SHRA BR BKN020 OVC057 17/15 A2983 RMK SC5SC3
                 SLP101 =
2018-07-22 11:15 METAR CYTR 221115Z CCA 05010G16KT 2 1/2SM -SHRA BR BKN020 OVC057 17/15 A2983 RMK
                 SC5SC3 SLP101 =
2018-07-22 11:00 METAR CYTR 221100Z 06010KT 8SM -SHRA SCT020 OVC057 17/14 A2983 RMK SC4SC4 SLP100
                 =
2018-07-22 10:00 METAR CYTR 221000Z 06009KT 10SM -SHRA FEW057 OVC120 20/13 A2985 RMK SC2AC6
                 SLP108 =
2018-07-22 09:00 METAR CYTR 220900Z 05006KT 15SM -SHRA OVC120 21/13 A2986 RMK AC8 SLP112 =
2018-07-22 08:39 METAR CYTR 220839Z 05007KT 15SM -SHRA OVC120 21/14 A2987 RMK AC8 SLP114 =
2018-07-22 08:00 METAR CYTR 220800Z 08007KT 15SM OVC120 22/14 A2988 RMK AC8 SLP119 =
2018-07-22 07:00 METAR CYTR 220700Z 09006KT 15SM OVC075 22/14 A2990 RMK AC8 SLP124 =
2018-07-22 06:00 METAR CYTR 220600Z 05004KT 15SM FEW021 OVC075 19/15 A2991 RMK SC2AC6 SLP129 =
2018-07-22 05:19 METAR CYTR 220519Z 03003KT 15SM FEW021 OVC075 20/15 A2993 RMK SC2AC6 SLP135 =
2018-07-22 05:00 METAR CYTR 220500Z 00000KT 15SM -SHRA FEW021 OVC075 20/15 A2993 RMK SC2AC6
                 SLP136 =
2018-07-22 04:37 METAR CYTR 220437Z CCA 02004KT 15SM -SHRA FEW021 OVC075 20/15 A2993 RMK SC2AC6
                 SLP137 =
2018-07-22 04:00 METAR CYTR 220400Z 02002KT 15SM FEW021 OVC075 20/16 A2995 RMK SC2AC6 SLP142 =
2018-07-22 03:39 METAR CYTR 220339Z 05002KT 15SM FEW013 SCT021 OVC075 20/16 A2995 RMK SF1SC3AC5
                 SLP143 =
2018-07-22 03:19 METAR CYTR 220319Z 05004KT 15SM FEW013 BKN021 OVC075 21/16 A2995 RMK SF2SC4AC2
                 SLP144 =
2018-07-22 03:00 METAR CYTR 220300Z 00000KT 15SM -SHRA SCT013 OVC021 22/15 A2995 RMK SF3SC5
                 SLP143 =
2018-07-22 02:48 METAR CYTR 220248Z 22002KT 15SM -SHRA SCT013 OVC021 22/15 A2996 RMK SF3SC5
                 SLP144 =
2018-07-22 02:25 METAR CYTR 220225Z 16003KT 15SM -SHRA OVC035 23/14 A2997 RMK SC8 SLP148 =
2018-07-22 02:00 METAR CYTR 220200Z 13003KT 15SM BKN060 OVC090 24/14 A2996 RMK SC6AC2 SLP146 =
2018-07-22 01:00 METAR CYTR 220100Z 11002KT 15SM FEW040 BKN090 BKN220 25/14 A2995 RMK SC1AC6CI1
                 SLP142 =

Support USWX by starting your Amazon purchase here.